createdAt,value
2017-06-29T00:00:33.927Z,74.50
2017-06-29T00:03:01.278Z,74.80
2017-06-29T00:05:28.217Z,74.80
2017-06-29T00:07:55.107Z,74.50
2017-06-29T00:10:21.985Z,74.40
2017-06-29T00:12:48.913Z,74.30
2017-06-29T00:15:16.193Z,74.90
2017-06-29T00:17:43.158Z,74.90
2017-06-29T00:20:10.109Z,75.40
2017-06-29T00:22:37.461Z,78.00
2017-06-29T00:25:04.388Z,78.00
2017-06-29T00:27:31.269Z,79.30
2017-06-29T00:29:58.615Z,80.50
2017-06-29T00:32:25.898Z,80.70
2017-06-29T00:34:52.778Z,80.70
2017-06-29T00:37:19.758Z,80.80
2017-06-29T00:39:47.038Z,80.40
2017-06-29T00:42:13.921Z,80.40
2017-06-29T00:44:40.902Z,80.30
2017-06-29T00:47:08.242Z,80.50
2017-06-29T00:49:35.207Z,80.50
2017-06-29T00:52:02.148Z,80.40
2017-06-29T00:54:29.094Z,80.10
2017-06-29T00:56:56.050Z,79.80
2017-06-29T00:59:23.402Z,79.10
2017-06-29T01:01:50.710Z,78.70
2017-06-29T01:04:17.630Z,78.70
2017-06-29T01:06:44.547Z,78.40
2017-06-29T01:09:11.489Z,77.90
2017-06-29T01:11:38.451Z,78.10
2017-06-29T01:14:05.802Z,78.40
2017-06-29T01:16:33.163Z,78.60
2017-06-29T01:19:00.516Z,78.60
2017-06-29T01:21:27.794Z,78.60
2017-06-29T01:23:54.815Z,78.70
2017-06-29T01:26:22.161Z,78.30
2017-06-29T01:28:49.116Z,78.30
2017-06-29T01:31:16.565Z,78.50
2017-06-29T01:33:43.529Z,78.50
2017-06-29T01:36:10.462Z,78.50
2017-06-29T01:38:37.745Z,78.90
2017-06-29T01:41:04.657Z,78.90
2017-06-29T01:43:31.555Z,79.10
2017-06-29T01:45:58.491Z,79.00
2017-06-29T01:48:25.371Z,78.30
2017-06-29T01:50:52.257Z,77.90
2017-06-29T01:53:19.565Z,77.70
2017-06-29T01:55:46.457Z,77.70
2017-06-29T01:58:13.777Z,77.70
2017-06-29T02:00:40.661Z,77.80
2017-06-29T02:03:07.941Z,78.30
2017-06-29T02:05:34.869Z,78.30
2017-06-29T02:08:01.754Z,78.10
2017-06-29T02:10:28.633Z,78.30
2017-06-29T02:12:55.578Z,79.50
2017-06-29T02:15:22.543Z,80.10
2017-06-29T02:17:50.013Z,80.70
2017-06-29T02:20:16.901Z,80.70
2017-06-29T02:22:43.873Z,81.40
2017-06-29T02:25:10.784Z,81.80
2017-06-29T02:27:37.765Z,82.70
2017-06-29T02:30:04.821Z,82.90
2017-06-29T02:32:31.705Z,83.10
2017-06-29T02:34:58.591Z,83.50
2017-06-29T02:37:25.593Z,84.80
2017-06-29T02:39:52.545Z,85.70
2017-06-29T02:42:19.522Z,86.40
2017-06-29T02:44:46.407Z,86.30
2017-06-29T02:47:13.293Z,86.40
2017-06-29T02:49:40.609Z,86.90
2017-06-29T02:52:07.590Z,86.90
2017-06-29T02:54:34.933Z,87.10
2017-06-29T02:57:01.833Z,87.10
2017-06-29T02:59:28.754Z,87.10
2017-06-29T03:01:55.680Z,87.40
2017-06-29T03:04:22.566Z,87.50
2017-06-29T03:06:49.561Z,87.30
2017-06-29T03:09:16.470Z,87.20
2017-06-29T03:11:43.462Z,86.80
2017-06-29T03:14:10.429Z,86.30
2017-06-29T03:16:37.777Z,85.40
2017-06-29T03:19:05.063Z,85.50
2017-06-29T03:21:31.989Z,85.50
2017-06-29T03:23:58.881Z,85.60
2017-06-29T03:26:25.773Z,85.60
2017-06-29T03:28:53.126Z,84.60
2017-06-29T03:31:20.466Z,84.00
2017-06-29T03:33:47.357Z,84.00
2017-06-29T03:36:14.309Z,83.90
2017-06-29T03:38:41.661Z,83.50
2017-06-29T03:41:08.604Z,83.60
2017-06-29T03:43:35.542Z,83.80
2017-06-29T03:46:02.422Z,83.60
2017-06-29T03:48:29.761Z,83.00
2017-06-29T03:50:56.804Z,83.00
2017-06-29T03:53:23.775Z,83.30
2017-06-29T03:55:51.110Z,83.20
2017-06-29T03:58:18.029Z,83.20
2017-06-29T04:00:44.913Z,83.30
2017-06-29T04:03:12.189Z,82.90
2017-06-29T04:05:39.101Z,82.90
2017-06-29T04:08:06.017Z,83.20
2017-06-29T04:10:32.989Z,83.00
2017-06-29T04:12:59.982Z,82.60
2017-06-29T04:15:26.981Z,83.20
2017-06-29T04:17:53.933Z,83.20
2017-06-29T04:20:20.825Z,83.30
2017-06-29T04:22:47.750Z,83.40
2017-06-29T04:25:14.773Z,83.50
2017-06-29T04:27:41.720Z,83.90
2017-06-29T04:30:09.077Z,83.50
2017-06-29T04:32:36.018Z,83.50
2017-06-29T04:35:02.900Z,83.70
2017-06-29T04:37:29.787Z,83.80
2017-06-29T04:39:56.754Z,83.70
2017-06-29T04:42:23.641Z,83.90
2017-06-29T04:44:50.529Z,84.20
2017-06-29T04:47:17.442Z,84.20
2017-06-29T04:49:44.322Z,84.10
2017-06-29T04:52:11.689Z,84.10
2017-06-29T04:54:38.601Z,84.10
2017-06-29T04:57:05.517Z,83.60
2017-06-29T04:59:32.433Z,83.40
2017-06-29T05:01:59.382Z,83.80
2017-06-29T05:04:26.698Z,84.20
2017-06-29T05:06:53.690Z,84.20
2017-06-29T05:09:21.050Z,83.90
2017-06-29T05:11:48.401Z,83.60
2017-06-29T05:14:15.745Z,83.90
2017-06-29T05:16:42.642Z,83.90
2017-06-29T05:19:09.646Z,84.00
2017-06-29T05:21:36.925Z,84.20
2017-06-29T05:24:03.942Z,84.20
2017-06-29T05:26:30.833Z,83.50
2017-06-29T05:28:57.775Z,83.60
2017-06-29T05:31:24.711Z,83.40
2017-06-29T05:33:51.783Z,83.70
2017-06-29T05:36:18.930Z,83.10
2017-06-29T05:38:46.278Z,83.30
2017-06-29T05:41:13.226Z,83.30
2017-06-29T05:43:40.149Z,83.50
2017-06-29T05:46:07.033Z,83.30
2017-06-29T05:48:34.369Z,83.00
2017-06-29T05:51:01.318Z,83.10
2017-06-29T05:53:28.674Z,82.80
2017-06-29T05:55:55.953Z,82.90
2017-06-29T05:58:22.894Z,82.90
2017-06-29T06:00:49.809Z,83.00
2017-06-29T06:03:16.766Z,83.20
2017-06-29T06:05:44.143Z,83.00
2017-06-29T06:08:11.092Z,83.00
2017-06-29T06:10:38.016Z,82.80
2017-06-29T06:13:05.370Z,82.70
2017-06-29T06:15:32.717Z,82.50
2017-06-29T06:17:59.673Z,82.50
2017-06-29T06:20:26.617Z,82.30
2017-06-29T06:22:53.589Z,82.90
2017-06-29T06:25:20.481Z,82.50
2017-06-29T06:27:47.469Z,82.20
2017-06-29T06:30:14.828Z,82.80
2017-06-29T06:32:42.161Z,82.20
2017-06-29T06:35:09.125Z,82.20
2017-06-29T06:37:36.465Z,81.80
2017-06-29T06:40:03.409Z,81.80
2017-06-29T06:42:30.365Z,82.00
2017-06-29T06:44:57.694Z,80.80
2017-06-29T06:47:24.669Z,80.80
2017-06-29T06:49:52.017Z,81.70
2017-06-29T06:52:18.964Z,81.70
2017-06-29T06:54:45.853Z,81.20
2017-06-29T06:57:12.857Z,81.00
2017-06-29T06:59:39.746Z,80.10
2017-06-29T07:02:06.650Z,80.50
2017-06-29T07:04:33.705Z,80.60
2017-06-29T07:07:01.033Z,80.10
2017-06-29T07:09:27.922Z,80.10
2017-06-29T07:11:54.937Z,80.20
2017-06-29T07:14:21.821Z,80.10
2017-06-29T07:16:48.729Z,79.10
2017-06-29T07:19:16.081Z,79.80
2017-06-29T07:21:43.025Z,79.80
2017-06-29T07:24:09.922Z,79.40
2017-06-29T07:26:36.841Z,79.80
2017-06-29T07:29:04.220Z,79.00
2017-06-29T07:31:31.130Z,79.00
2017-06-29T07:33:58.488Z,78.60
2017-06-29T07:36:25.789Z,78.40
2017-06-29T07:38:52.673Z,78.40
2017-06-29T07:41:19.626Z,78.00
2017-06-29T07:43:46.997Z,78.10
2017-06-29T07:46:13.894Z,78.10
2017-06-29T07:48:40.874Z,77.80
2017-06-29T07:51:07.844Z,77.30
2017-06-29T07:53:35.173Z,78.10
2017-06-29T07:56:02.121Z,78.20
2017-06-29T07:58:29.070Z,78.20
2017-06-29T08:00:56.015Z,78.10
2017-06-29T08:03:22.965Z,77.60
2017-06-29T08:05:50.313Z,77.60
2017-06-29T08:08:17.238Z,77.60
2017-06-29T08:10:44.205Z,77.10
2017-06-29T08:13:11.117Z,76.10
2017-06-29T08:15:38.060Z,76.80
2017-06-29T08:18:05.049Z,76.90
2017-06-29T08:20:31.995Z,76.30
2017-06-29T08:22:58.917Z,76.30
2017-06-29T08:25:25.896Z,75.40
2017-06-29T08:27:53.174Z,76.10
2017-06-29T08:30:20.190Z,76.10
2017-06-29T08:32:47.555Z,75.30
2017-06-29T08:35:14.866Z,75.10
2017-06-29T08:37:41.797Z,75.10
2017-06-29T08:40:08.685Z,76.30
2017-06-29T08:42:35.638Z,76.20
2017-06-29T08:45:02.590Z,75.20
2017-06-29T08:47:29.874Z,75.20
2017-06-29T08:49:56.805Z,75.20
2017-06-29T08:52:24.088Z,75.80
2017-06-29T08:54:51.089Z,75.80
2017-06-29T08:57:18.490Z,76.00
2017-06-29T08:59:45.435Z,76.00
2017-06-29T09:02:12.442Z,75.70
2017-06-29T09:04:39.381Z,75.20
2017-06-29T09:07:06.334Z,75.20
2017-06-29T09:09:33.277Z,75.10
2017-06-29T09:12:00.232Z,74.90
2017-06-29T09:14:27.514Z,73.40
2017-06-29T09:16:54.393Z,73.40
2017-06-29T09:19:21.369Z,73.00
2017-06-29T09:21:48.317Z,73.30
2017-06-29T09:24:15.265Z,74.40
2017-06-29T09:26:42.584Z,74.00
2017-06-29T09:29:09.565Z,74.00
2017-06-29T09:31:36.557Z,74.70
2017-06-29T09:34:03.485Z,75.00
2017-06-29T09:36:31.215Z,74.20
2017-06-29T09:38:58.101Z,73.40
2017-06-29T09:41:25.113Z,72.90
2017-06-29T09:43:52.005Z,73.00
2017-06-29T09:46:18.904Z,73.30
2017-06-29T09:48:45.849Z,72.30
2017-06-29T09:51:12.845Z,72.30
2017-06-29T09:53:39.745Z,71.60
2017-06-29T09:56:06.675Z,71.50
2017-06-29T09:58:33.645Z,71.00
2017-06-29T10:01:00.992Z,71.80
2017-06-29T10:03:27.965Z,71.80
2017-06-29T10:05:55.322Z,72.10
2017-06-29T10:08:22.238Z,72.10
2017-06-29T10:10:49.182Z,71.90
2017-06-29T10:13:16.133Z,72.20
2017-06-29T10:15:43.025Z,71.70
2017-06-29T10:18:09.953Z,71.00
2017-06-29T10:20:36.877Z,70.90
2017-06-29T10:23:04.233Z,69.60
2017-06-29T10:25:31.595Z,69.20
2017-06-29T10:27:58.873Z,69.60
2017-06-29T10:30:25.760Z,69.60
2017-06-29T10:32:52.734Z,69.60
2017-06-29T10:35:19.671Z,69.50
2017-06-29T10:37:46.621Z,69.10
2017-06-29T10:40:13.669Z,68.90
2017-06-29T10:42:40.718Z,69.50
2017-06-29T10:45:07.599Z,69.10
2017-06-29T10:47:34.517Z,68.70
2017-06-29T10:50:01.530Z,68.10
2017-06-29T10:52:28.409Z,67.70
2017-06-29T10:54:55.765Z,68.60
2017-06-29T10:57:22.713Z,68.60
2017-06-29T10:59:50.108Z,68.60
2017-06-29T11:02:17.009Z,68.60
2017-06-29T11:04:44.057Z,68.80
2017-06-29T11:07:10.937Z,68.10
2017-06-29T11:09:37.828Z,67.10
2017-06-29T11:12:04.762Z,65.80
2017-06-29T11:14:31.945Z,67.30
2017-06-29T11:16:58.898Z,67.30
2017-06-29T11:19:25.825Z,67.00
2017-06-29T11:21:52.786Z,66.30
2017-06-29T11:24:19.729Z,65.50
2017-06-29T11:26:46.683Z,64.30
2017-06-29T11:29:14.038Z,65.70
2017-06-29T11:31:41.395Z,65.80
2017-06-29T11:34:08.439Z,65.80
2017-06-29T11:36:35.431Z,66.00
2017-06-29T11:39:02.318Z,65.40
2017-06-29T11:41:29.277Z,65.60
2017-06-29T11:43:56.229Z,65.70
2017-06-29T11:46:23.626Z,65.90
2017-06-29T11:48:50.573Z,65.90
2017-06-29T11:51:17.473Z,71.70
2017-06-29T11:53:44.393Z,76.90
2017-06-29T11:56:11.327Z,79.00
2017-06-29T11:58:38.205Z,77.50
2017-06-29T12:01:05.153Z,78.70
2017-06-29T12:03:32.103Z,79.80
2017-06-29T12:05:59.054Z,80.70
2017-06-29T12:08:25.929Z,82.10
2017-06-29T12:10:52.842Z,83.40
2017-06-29T12:13:19.793Z,81.50
2017-06-29T12:15:47.149Z,79.90
2017-06-29T12:18:14.110Z,79.90
2017-06-29T12:20:41.078Z,79.40
2017-06-29T12:23:08.027Z,79.40
2017-06-29T12:25:35.364Z,79.20
2017-06-29T12:28:02.321Z,79.20
2017-06-29T12:30:29.270Z,80.90
2017-06-29T12:32:56.215Z,80.40
2017-06-29T12:35:23.106Z,78.50
2017-06-29T12:37:49.980Z,77.30
2017-06-29T12:40:16.901Z,76.70
2017-06-29T12:42:43.786Z,77.50
2017-06-29T12:45:10.745Z,76.10
2017-06-29T12:47:37.685Z,77.40
2017-06-29T12:50:04.569Z,74.50
2017-06-29T12:52:31.726Z,75.10
2017-06-29T12:54:58.630Z,74.40
2017-06-29T12:57:25.573Z,74.90
2017-06-29T12:59:52.453Z,73.70
2017-06-29T13:02:19.366Z,75.30
2017-06-29T13:04:46.294Z,74.60
2017-06-29T13:07:13.307Z,74.70
2017-06-29T13:09:40.201Z,74.80
2017-06-29T13:12:07.201Z,75.00
2017-06-29T13:14:34.097Z,74.30
2017-06-29T13:17:00.977Z,74.50
2017-06-29T13:19:27.893Z,73.80
2017-06-29T13:21:55.289Z,70.00
2017-06-29T13:24:22.168Z,70.00
2017-06-29T13:26:49.136Z,73.00
2017-06-29T13:29:16.097Z,70.10
2017-06-29T13:31:43.383Z,68.80
2017-06-29T13:34:10.297Z,68.90
2017-06-29T13:36:37.645Z,69.60
2017-06-29T13:39:04.594Z,69.60
2017-06-29T13:41:31.479Z,69.80
2017-06-29T13:43:58.365Z,66.50
2017-06-29T13:46:25.325Z,66.80
2017-06-29T13:48:52.230Z,67.40
2017-06-29T13:51:19.121Z,66.90
2017-06-29T13:53:46.446Z,66.70
2017-06-29T13:56:13.421Z,66.70
2017-06-29T13:58:40.365Z,67.40
2017-06-29T14:01:07.293Z,67.70
2017-06-29T14:03:34.176Z,64.20
2017-06-29T14:06:01.530Z,64.30
2017-06-29T14:08:28.877Z,63.50
2017-06-29T14:10:56.254Z,64.20
2017-06-29T14:13:23.143Z,64.20
2017-06-29T14:15:50.122Z,63.80
2017-06-29T14:18:17.073Z,63.80
2017-06-29T14:20:44.401Z,63.20
2017-06-29T14:23:11.396Z,63.20
2017-06-29T14:25:38.277Z,64.00
2017-06-29T14:28:05.202Z,63.90
2017-06-29T14:30:32.113Z,63.10
2017-06-29T14:32:59.462Z,62.90
2017-06-29T14:35:26.426Z,62.90
2017-06-29T14:37:53.765Z,59.60
2017-06-29T14:40:20.717Z,59.60
2017-06-29T14:42:48.016Z,59.70
2017-06-29T14:45:15.014Z,59.70
2017-06-29T14:47:41.957Z,57.20
2017-06-29T14:50:08.947Z,57.50
2017-06-29T14:52:35.949Z,56.90
2017-06-29T14:55:02.838Z,55.20
2017-06-29T14:57:29.830Z,53.80
2017-06-29T14:59:56.713Z,54.20
2017-06-29T15:02:23.633Z,56.80
2017-06-29T15:04:50.590Z,55.50
2017-06-29T15:07:17.941Z,56.10
2017-06-29T15:09:45.299Z,57.40
2017-06-29T15:12:12.241Z,57.40
2017-06-29T15:14:39.291Z,56.90
2017-06-29T15:17:06.185Z,56.90
2017-06-29T15:19:33.085Z,56.10
2017-06-29T15:22:00.434Z,57.10
2017-06-29T15:24:27.381Z,57.10
2017-06-29T15:26:54.265Z,56.90
2017-06-29T15:29:21.273Z,58.00
2017-06-29T15:31:48.154Z,57.70
2017-06-29T15:34:15.078Z,60.00
2017-06-29T15:36:42.421Z,66.90
2017-06-29T15:39:09.412Z,66.90
2017-06-29T15:41:36.354Z,69.90
2017-06-29T15:44:03.246Z,70.90
2017-06-29T15:46:30.210Z,73.30
2017-06-29T15:48:57.149Z,73.90
2017-06-29T15:51:24.113Z,74.00
2017-06-29T15:53:51.466Z,72.50
2017-06-29T15:56:18.782Z,73.30
2017-06-29T15:58:45.753Z,73.30
2017-06-29T16:01:12.706Z,74.30
2017-06-29T16:03:39.653Z,74.50
2017-06-29T16:06:06.958Z,72.90
2017-06-29T16:08:33.847Z,72.90
2017-06-29T16:11:00.797Z,72.60
2017-06-29T16:13:27.745Z,72.00
2017-06-29T16:15:54.696Z,69.30
2017-06-29T16:18:22.050Z,69.00
2017-06-29T16:20:48.937Z,69.00
2017-06-29T16:23:15.881Z,69.10
2017-06-29T16:25:42.881Z,68.70
2017-06-29T16:28:09.830Z,67.70
2017-06-29T16:30:37.270Z,66.90
2017-06-29T16:33:04.162Z,66.90
2017-06-29T16:35:31.057Z,66.30
2017-06-29T16:37:58.053Z,66.50
2017-06-29T16:40:24.956Z,67.80
2017-06-29T16:42:51.902Z,66.50
2017-06-29T16:45:19.265Z,65.50
2017-06-29T16:47:46.633Z,66.00
2017-06-29T16:50:13.970Z,66.20
2017-06-29T16:52:40.893Z,66.20
2017-06-29T16:55:07.870Z,67.10
2017-06-29T16:57:35.217Z,68.60
2017-06-29T17:00:02.154Z,68.60
2017-06-29T17:02:29.117Z,70.30
2017-06-29T17:04:56.393Z,70.00
2017-06-29T17:07:23.457Z,70.00
2017-06-29T17:09:50.403Z,68.20
2017-06-29T17:12:17.454Z,65.60
2017-06-29T17:14:44.354Z,66.60
2017-06-29T17:17:11.302Z,66.40
2017-06-29T17:19:38.617Z,67.20
2017-06-29T17:22:05.606Z,67.20
2017-06-29T17:24:32.533Z,67.80
2017-06-29T17:26:59.598Z,68.50
2017-06-29T17:29:26.546Z,69.40
2017-06-29T17:31:53.496Z,70.20
2017-06-29T17:34:20.851Z,71.80
2017-06-29T17:36:47.801Z,71.80
2017-06-29T17:39:15.163Z,72.20
2017-06-29T17:41:42.451Z,71.90
2017-06-29T17:44:09.330Z,71.90
2017-06-29T17:46:36.297Z,71.90
2017-06-29T17:49:03.262Z,72.00
2017-06-29T17:51:30.542Z,71.70
2017-06-29T17:53:57.545Z,71.70
2017-06-29T17:56:24.466Z,71.30
2017-06-29T17:58:51.438Z,70.90
2017-06-29T18:01:18.385Z,71.60
2017-06-29T18:03:45.334Z,71.70
2017-06-29T18:06:12.609Z,72.00
2017-06-29T18:08:39.490Z,72.00
2017-06-29T18:11:06.477Z,72.60
2017-06-29T18:13:33.420Z,72.90
2017-06-29T18:16:00.368Z,73.40
2017-06-29T18:18:27.322Z,73.50
2017-06-29T18:20:54.261Z,73.50
2017-06-29T18:23:21.237Z,73.50
2017-06-29T18:25:48.137Z,73.80
2017-06-29T18:28:15.129Z,73.90
2017-06-29T18:30:42.137Z,73.00
2017-06-29T18:33:09.197Z,72.50
2017-06-29T18:35:36.152Z,72.40
2017-06-29T18:38:03.433Z,72.20
2017-06-29T18:40:30.762Z,72.20
2017-06-29T18:42:57.638Z,71.80
2017-06-29T18:45:24.528Z,72.30
2017-06-29T18:47:51.533Z,71.60
2017-06-29T18:50:18.438Z,72.30
2017-06-29T18:52:45.328Z,73.00
2017-06-29T18:55:12.665Z,73.40
2017-06-29T18:57:39.554Z,73.40
2017-06-29T19:00:06.471Z,73.10
2017-06-29T19:02:33.406Z,72.50
2017-06-29T19:05:00.286Z,72.70
2017-06-29T19:07:27.174Z,73.70
2017-06-29T19:09:54.126Z,74.80
2017-06-29T19:12:21.017Z,75.00
2017-06-29T19:14:47.910Z,75.30
2017-06-29T19:17:14.892Z,75.50
2017-06-29T19:19:41.802Z,75.20
2017-06-29T19:22:08.698Z,74.30
2017-06-29T19:24:36.030Z,74.60
2017-06-29T19:27:02.923Z,74.60
2017-06-29T19:29:29.811Z,73.90
2017-06-29T19:31:56.735Z,73.40
2017-06-29T19:34:23.621Z,73.30
2017-06-29T19:36:50.506Z,73.90
2017-06-29T19:39:17.446Z,73.90
2017-06-29T19:41:44.346Z,74.30
2017-06-29T19:44:11.246Z,74.00
2017-06-29T19:46:38.182Z,73.50
2017-06-29T19:49:05.068Z,73.60
2017-06-29T19:51:31.950Z,73.70
2017-06-29T19:53:59.276Z,74.00
2017-06-29T19:56:26.153Z,74.00
2017-06-29T19:58:53.531Z,73.30
2017-06-29T20:01:20.462Z,73.30
2017-06-29T20:03:47.737Z,73.30
2017-06-29T20:06:14.659Z,73.30
2017-06-29T20:08:41.985Z,73.10
2017-06-29T20:11:08.870Z,73.10
2017-06-29T20:13:35.765Z,73.00
2017-06-29T20:16:02.734Z,73.40
2017-06-29T20:18:30.101Z,74.40
2017-06-29T20:20:57.550Z,75.00
2017-06-29T20:23:24.905Z,75.20
2017-06-29T20:25:52.195Z,75.10
2017-06-29T20:28:19.097Z,75.10
2017-06-29T20:30:46.029Z,75.90
2017-06-29T20:33:13.008Z,76.90
2017-06-29T20:35:40.354Z,77.80
2017-06-29T20:38:07.689Z,78.00
2017-06-29T20:40:34.649Z,78.00
2017-06-29T20:43:01.539Z,77.80
2017-06-29T20:45:28.590Z,77.60
2017-06-29T20:47:55.467Z,76.90
2017-06-29T20:50:22.434Z,76.70
2017-06-29T20:52:49.392Z,77.00
2017-06-29T20:55:16.669Z,76.90
2017-06-29T20:57:43.586Z,76.90
2017-06-29T21:00:10.987Z,77.10
2017-06-29T21:02:37.865Z,77.50
2017-06-29T21:05:04.750Z,77.00
2017-06-29T21:07:32.089Z,76.50
2017-06-29T21:09:58.970Z,76.50
2017-06-29T21:12:25.853Z,76.20
2017-06-29T21:14:52.778Z,75.90
2017-06-29T21:17:19.666Z,75.70
2017-06-29T21:19:46.620Z,75.80
2017-06-29T21:22:13.969Z,75.10
2017-06-29T21:24:40.921Z,75.10
2017-06-29T21:27:07.868Z,75.50
2017-06-29T21:29:34.813Z,75.50
2017-06-29T21:32:02.173Z,75.40
2017-06-29T21:34:29.521Z,75.60
2017-06-29T21:36:56.569Z,75.60
2017-06-29T21:39:23.518Z,75.40
2017-06-29T21:41:50.410Z,75.40
2017-06-29T21:44:17.454Z,75.70
2017-06-29T21:46:44.349Z,75.90
2017-06-29T21:49:11.297Z,75.80
2017-06-29T21:51:38.229Z,76.00
2017-06-29T21:54:05.189Z,75.90
2017-06-29T21:56:32.082Z,76.10
2017-06-29T21:58:59.090Z,75.90
2017-06-29T22:01:26.374Z,76.20
2017-06-29T22:03:53.289Z,76.20
2017-06-29T22:06:20.638Z,76.70
2017-06-29T22:08:47.589Z,76.70
2017-06-29T22:11:14.534Z,76.90
2017-06-29T22:13:41.481Z,77.40
2017-06-29T22:16:08.426Z,77.90
2017-06-29T22:18:35.381Z,78.40
2017-06-29T22:21:02.734Z,78.60
2017-06-29T22:23:29.682Z,78.60
2017-06-29T22:25:56.961Z,79.00
2017-06-29T22:28:23.972Z,79.00
2017-06-29T22:30:50.926Z,79.30
2017-06-29T22:33:17.873Z,79.00
2017-06-29T22:35:44.797Z,78.80
2017-06-29T22:38:11.769Z,78.80
2017-06-29T22:40:38.650Z,78.60
2017-06-29T22:43:05.653Z,78.70
2017-06-29T22:45:32.542Z,79.00
2017-06-29T22:47:59.425Z,79.80
2017-06-29T22:50:26.397Z,80.50
2017-06-29T22:52:53.289Z,81.00
2017-06-29T22:55:20.186Z,81.50
2017-06-29T22:57:47.545Z,80.80
2017-06-29T23:00:14.439Z,80.80
2017-06-29T23:02:41.325Z,80.30
2017-06-29T23:05:08.273Z,80.40
2017-06-29T23:07:35.166Z,80.60
2017-06-29T23:10:02.046Z,80.60
2017-06-29T23:12:29.017Z,81.10
2017-06-29T23:14:55.901Z,80.90
2017-06-29T23:17:22.866Z,80.60
2017-06-29T23:19:49.794Z,80.20
2017-06-29T23:22:16.761Z,79.90
2017-06-29T23:24:43.661Z,79.80
2017-06-29T23:27:10.654Z,79.30
2017-06-29T23:29:37.598Z,79.30
2017-06-29T23:32:04.546Z,79.40
2017-06-29T23:34:31.498Z,79.10
2017-06-29T23:36:58.856Z,79.30
2017-06-29T23:39:25.793Z,79.30
2017-06-29T23:41:52.739Z,79.30
2017-06-29T23:44:19.633Z,79.10
2017-06-29T23:46:46.530Z,79.40
2017-06-29T23:49:13.477Z,79.10
2017-06-29T23:51:40.430Z,79.10
2017-06-29T23:54:07.777Z,79.00
2017-06-29T23:56:34.726Z,79.00
2017-06-29T23:59:01.669Z,78.90
